sensor_id;sensor_type;location;lat;lon;timestamp;pressure;altitude;pressure_sealevel;temperature;humidity
36630;BME280;36256;42.154;23.002;2023-02-19T00:01:15;97630.69;;;2.79;94.08
36630;BME280;36256;42.154;23.002;2023-02-19T00:03:46;97638.63;;;2.73;93.58
36630;BME280;36256;42.154;23.002;2023-02-19T00:06:13;97635.06;;;2.69;92.73
36630;BME280;36256;42.154;23.002;2023-02-19T00:08:40;97635.84;;;2.63;92.35
36630;BME280;36256;42.154;23.002;2023-02-19T00:11:10;97629.91;;;2.64;91.82
36630;BME280;36256;42.154;23.002;2023-02-19T00:13:38;97639.41;;;2.67;93.06
36630;BME280;36256;42.154;23.002;2023-02-19T00:16:19;97629.91;;;2.64;94.08
36630;BME280;36256;42.154;23.002;2023-02-19T00:18:46;97626.72;;;2.48;95.11
36630;BME280;36256;42.154;23.002;2023-02-19T00:21:14;97635.44;;;2.50;95.36
36630;BME280;36256;42.154;23.002;2023-02-19T00:23:40;97637.38;;;2.39;96.35
36630;BME280;36256;42.154;23.002;2023-02-19T00:26:11;97634.63;;;2.43;96.15
36630;BME280;36256;42.154;23.002;2023-02-19T00:28:45;97632.25;;;2.34;97.35
36630;BME280;36256;42.154;23.002;2023-02-19T00:31:16;97635.38;;;2.25;100.00
36630;BME280;36256;42.154;23.002;2023-02-19T00:33:45;97637.38;;;2.32;100.00
36630;BME280;36256;42.154;23.002;2023-02-19T00:36:12;97648.09;;;2.58;99.17
36630;BME280;36256;42.154;23.002;2023-02-19T00:38:40;97641.41;;;2.73;96.94
36630;BME280;36256;42.154;23.002;2023-02-19T00:41:08;97632.31;;;2.76;97.33
36630;BME280;36256;42.154;23.002;2023-02-19T00:43:55;97637.06;;;2.83;98.04
36630;BME280;36256;42.154;23.002;2023-02-19T00:48:50;97629.53;;;2.94;96.66
36630;BME280;36256;42.154;23.002;2023-02-19T00:51:22;97622.81;;;3.05;94.59
36630;BME280;36256;42.154;23.002;2023-02-19T00:53:49;97620.44;;;3.14;93.59
36630;BME280;36256;42.154;23.002;2023-02-19T00:56:16;97619.22;;;3.19;93.12
36630;BME280;36256;42.154;23.002;2023-02-19T00:58:43;97610.91;;;3.23;92.70
36630;BME280;36256;42.154;23.002;2023-02-19T01:01:10;97610.09;;;3.33;93.27
36630;BME280;36256;42.154;23.002;2023-02-19T01:03:37;97606.91;;;3.34;91.91
36630;BME280;36256;42.154;23.002;2023-02-19T01:06:06;97603.78;;;3.29;91.83
36630;BME280;36256;42.154;23.002;2023-02-19T01:08:33;97595.06;;;3.19;93.60
36630;BME280;36256;42.154;23.002;2023-02-19T01:11:00;97595.88;;;3.16;92.46
36630;BME280;36256;42.154;23.002;2023-02-19T01:13:27;97599.81;;;3.08;92.79
36630;BME280;36256;42.154;23.002;2023-02-19T01:18:31;97587.16;;;3.07;92.99
36630;BME280;36256;42.154;23.002;2023-02-19T01:20:57;97574.09;;;2.90;93.93
36630;BME280;36256;42.154;23.002;2023-02-19T01:23:24;97585.19;;;2.90;93.95
36630;BME280;36256;42.154;23.002;2023-02-19T01:25:51;97595.91;;;2.74;93.95
36630;BME280;36256;42.154;23.002;2023-02-19T01:28:17;97585.59;;;2.71;93.64
36630;BME280;36256;42.154;23.002;2023-02-19T01:30:44;97596.66;;;2.64;93.69
36630;BME280;36256;42.154;23.002;2023-02-19T01:33:11;97596.66;;;2.57;93.89
36630;BME280;36256;42.154;23.002;2023-02-19T01:35:38;97577.66;;;2.52;95.15
36630;BME280;36256;42.154;23.002;2023-02-19T01:38:04;97600.63;;;2.49;97.34
36630;BME280;36256;42.154;23.002;2023-02-19T01:40:33;97594.25;;;2.45;97.70
36630;BME280;36256;42.154;23.002;2023-02-19T01:43:00;97609.28;;;2.37;97.82
36630;BME280;36256;42.154;23.002;2023-02-19T01:45:30;97599.41;;;2.43;98.69
36630;BME280;36256;42.154;23.002;2023-02-19T01:48:24;97598.22;;;2.44;99.15
36630;BME280;36256;42.154;23.002;2023-02-19T01:51:06;97598.22;;;2.48;97.73
36630;BME280;36256;42.154;23.002;2023-02-19T01:53:44;97605.75;;;2.54;96.41
36630;BME280;36256;42.154;23.002;2023-02-19T01:56:14;97597.47;;;2.58;95.15
36630;BME280;36256;42.154;23.002;2023-02-19T01:58:41;97593.50;;;2.62;95.16
36630;BME280;36256;42.154;23.002;2023-02-19T02:01:08;97595.88;;;2.67;95.06
36630;BME280;36256;42.154;23.002;2023-02-19T02:03:37;97604.59;;;2.69;96.40
36630;BME280;36256;42.154;23.002;2023-02-19T02:06:16;97599.81;;;2.66;96.47
36630;BME280;36256;42.154;23.002;2023-02-19T02:08:45;97599.03;;;2.62;98.58
36630;BME280;36256;42.154;23.002;2023-02-19T02:11:31;97604.59;;;2.55;99.28
36630;BME280;36256;42.154;23.002;2023-02-19T02:13:57;97600.22;;;2.54;100.00
36630;BME280;36256;42.154;23.002;2023-02-19T02:32:39;97610.47;;;2.43;99.07
36630;BME280;36256;42.154;23.002;2023-02-19T02:35:10;97594.25;;;2.31;98.58
36630;BME280;36256;42.154;23.002;2023-02-19T02:37:41;97607.72;;;2.43;99.10
36630;BME280;36256;42.154;23.002;2023-02-19T02:40:09;97593.50;;;2.48;96.77
36630;BME280;36256;42.154;23.002;2023-02-19T02:42:39;97618.03;;;2.57;97.25
36630;BME280;36256;42.154;23.002;2023-02-19T02:48:23;97627.50;;;2.38;97.52
36630;BME280;36256;42.154;23.002;2023-02-19T02:51:09;97621.13;;;2.30;96.86
36630;BME280;36256;42.154;23.002;2023-02-19T02:53:57;97621.13;;;2.27;98.39
36630;BME280;36256;42.154;23.002;2023-02-19T02:56:47;97616.78;;;2.29;98.75
36630;BME280;36256;42.154;23.002;2023-02-19T02:59:16;97613.22;;;2.25;98.89
36630;BME280;36256;42.154;23.002;2023-02-19T03:01:56;97602.94;;;2.33;97.56
36630;BME280;36256;42.154;23.002;2023-02-19T03:10:38;97625.88;;;2.23;99.23
36630;BME280;36256;42.154;23.002;2023-02-19T03:13:10;97643.25;;;2.16;100.00
36630;BME280;36256;42.154;23.002;2023-02-19T03:16:08;97641.66;;;2.08;100.00
36630;BME280;36256;42.154;23.002;2023-02-19T03:18:56;97649.59;;;2.17;100.00
36630;BME280;36256;42.154;23.002;2023-02-19T03:21:44;97646.84;;;2.27;100.00
36630;BME280;36256;42.154;23.002;2023-02-19T03:24:13;97647.28;;;2.40;99.05
36630;BME280;36256;42.154;23.002;2023-02-19T03:27:01;97640.94;;;2.43;99.44
36630;BME280;36256;42.154;23.002;2023-02-19T03:29:31;97642.16;;;2.46;98.54
36630;BME280;36256;42.154;23.002;2023-02-19T03:32:05;97644.94;;;2.49;98.29
36630;BME280;36256;42.154;23.002;2023-02-19T03:34:36;97652.44;;;2.49;97.49
36630;BME280;36256;42.154;23.002;2023-02-19T03:40:26;97656.59;;;1.90;100.00
36630;BME280;36256;42.154;23.002;2023-02-19T03:43:23;97656.63;;;1.97;100.00
36630;BME280;36256;42.154;23.002;2023-02-19T03:48:32;97659.78;;;1.95;99.54
36630;BME280;36256;42.154;23.002;2023-02-19T03:51:08;97651.94;;;2.08;100.00
36630;BME280;36256;42.154;23.002;2023-02-19T03:58:52;97655.06;;;1.99;100.00
36630;BME280;36256;42.154;23.002;2023-02-19T04:01:26;97659.00;;;1.98;100.00
36630;BME280;36256;42.154;23.002;2023-02-19T04:04:00;97660.59;;;1.96;99.99
36630;BME280;36256;42.154;23.002;2023-02-19T04:06:30;97668.50;;;1.97;99.41
36630;BME280;36256;42.154;23.002;2023-02-19T04:09:00;97667.69;;;1.97;99.51
36630;BME280;36256;42.154;23.002;2023-02-19T04:11:29;97674.03;;;2.01;99.21
36630;BME280;36256;42.154;23.002;2023-02-19T04:14:02;97676.84;;;2.08;99.19
36630;BME280;36256;42.154;23.002;2023-02-19T04:16:32;97675.69;;;2.16;98.90
36630;BME280;36256;42.154;23.002;2023-02-19T04:19:07;97677.69;;;2.15;98.60
36630;BME280;36256;42.154;23.002;2023-02-19T04:21:38;97678.88;;;2.25;98.37
36630;BME280;36256;42.154;23.002;2023-02-19T04:24:11;97674.94;;;2.26;97.70
36630;BME280;36256;42.154;23.002;2023-02-19T04:26:40;97679.69;;;2.29;98.18
36630;BME280;36256;42.154;23.002;2023-02-19T04:29:07;97682.06;;;2.30;99.11
36630;BME280;36256;42.154;23.002;2023-02-19T04:31:34;97688.81;;;2.36;97.89
36630;BME280;36256;42.154;23.002;2023-02-19T04:34:02;97694.00;;;2.49;97.83
36630;BME280;36256;42.154;23.002;2023-02-19T04:36:32;97692.78;;;2.43;97.12
36630;BME280;36256;42.154;23.002;2023-02-19T04:38:59;97680.88;;;2.35;97.38
36630;BME280;36256;42.154;23.002;2023-02-19T04:41:26;97694.78;;;2.49;96.53
36630;BME280;36256;42.154;23.002;2023-02-19T04:43:52;97699.50;;;2.45;94.95
36630;BME280;36256;42.154;23.002;2023-02-19T04:46:19;97697.53;;;2.46;93.96
36630;BME280;36256;42.154;23.002;2023-02-19T04:48:45;97688.44;;;2.38;92.89
36630;BME280;36256;42.154;23.002;2023-02-19T04:51:12;97684.41;;;2.25;92.62
36630;BME280;36256;42.154;23.002;2023-02-19T04:53:39;97690.00;;;2.32;93.64
36630;BME280;36256;42.154;23.002;2023-02-19T04:56:11;97701.06;;;2.32;94.16
36630;BME280;36256;42.154;23.002;2023-02-19T04:58:39;97701.84;;;2.29;94.82
36630;BME280;36256;42.154;23.002;2023-02-19T05:01:06;97701.06;;;2.32;93.85
36630;BME280;36256;42.154;23.002;2023-02-19T05:03:33;97698.66;;;2.27;95.18
36630;BME280;36256;42.154;23.002;2023-02-19T05:06:09;97708.13;;;2.19;95.85
36630;BME280;36256;42.154;23.002;2023-02-19T05:08:37;97700.59;;;2.09;95.81
36630;BME280;36256;42.154;23.002;2023-02-19T05:11:04;97700.13;;;2.00;96.05
36630;BME280;36256;42.154;23.002;2023-02-19T05:13:31;97707.19;;;1.87;96.86
36630;BME280;36256;42.154;23.002;2023-02-19T05:16:00;97705.63;;;1.93;97.15
36630;BME280;36256;42.154;23.002;2023-02-19T05:18:28;97704.06;;;1.95;95.14
36630;BME280;36256;42.154;23.002;2023-02-19T05:20:56;97702.50;;;1.98;93.56
36630;BME280;36256;42.154;23.002;2023-02-19T05:23:24;97710.34;;;1.92;94.92
36630;BME280;36256;42.154;23.002;2023-02-19T05:25:50;97714.31;;;1.88;94.25
36630;BME280;36256;42.154;23.002;2023-02-19T05:28:17;97711.13;;;1.86;92.05
36630;BME280;36256;42.154;23.002;2023-02-19T05:30:49;97707.88;;;1.70;92.56
36630;BME280;36256;42.154;23.002;2023-02-19T05:33:17;97722.88;;;1.69;94.77
36630;BME280;36256;42.154;23.002;2023-02-19T05:35:47;97728.44;;;1.69;96.79
36630;BME280;36256;42.154;23.002;2023-02-19T05:38:14;97734.69;;;1.62;98.68
36630;BME280;36256;42.154;23.002;2023-02-19T05:40:42;97719.66;;;1.59;98.44
36630;BME280;36256;42.154;23.002;2023-02-19T05:43:09;97735.97;;;1.75;96.71
36630;BME280;36256;42.154;23.002;2023-02-19T05:45:36;97737.97;;;1.82;96.49
36630;BME280;36256;42.154;23.002;2023-02-19T05:48:03;97741.16;;;1.84;97.02
36630;BME280;36256;42.154;23.002;2023-02-19T05:50:35;97751.41;;;1.80;100.00
36630;BME280;36256;42.154;23.002;2023-02-19T05:53:05;97751.38;;;1.73;100.00
36630;BME280;36256;42.154;23.002;2023-02-19T05:55:34;97756.16;;;1.83;99.24
36630;BME280;36256;42.154;23.002;2023-02-19T05:58:01;97743.88;;;1.77;98.24
36630;BME280;36256;42.154;23.002;2023-02-19T06:00:29;97759.34;;;1.85;98.51
36630;BME280;36256;42.154;23.002;2023-02-19T06:02:55;97768.06;;;1.90;99.66
36630;BME280;36256;42.154;23.002;2023-02-19T06:05:22;97771.34;;;2.06;98.44
36630;BME280;36256;42.154;23.002;2023-02-19T06:07:49;97771.75;;;2.12;98.03
36630;BME280;36256;42.154;23.002;2023-02-19T06:10:16;97772.22;;;2.24;97.00
36630;BME280;36256;42.154;23.002;2023-02-19T06:12:43;97773.88;;;2.43;95.93
36630;BME280;36256;42.154;23.002;2023-02-19T06:15:10;97770.75;;;2.45;95.92
36630;BME280;36256;42.154;23.002;2023-02-19T06:17:36;97775.53;;;2.55;96.07
36630;BME280;36256;42.154;23.002;2023-02-19T06:20:03;97777.13;;;2.66;95.32
36630;BME280;36256;42.154;23.002;2023-02-19T06:22:29;97785.84;;;2.68;95.02
36630;BME280;36256;42.154;23.002;2023-02-19T06:24:56;97786.28;;;2.70;95.07
36630;BME280;36256;42.154;23.002;2023-02-19T06:27:23;97796.25;;;2.92;95.55
36630;BME280;36256;42.154;23.002;2023-02-19T06:29:50;97803.41;;;3.07;95.28
36630;BME280;36256;42.154;23.002;2023-02-19T06:49:15;97791.13;;;5.11;81.55
36630;BME280;36256;42.154;23.002;2023-02-19T06:51:41;97793.09;;;5.18;80.52
36630;BME280;36256;42.154;23.002;2023-02-19T06:54:08;97797.75;;;5.35;79.91
36630;BME280;36256;42.154;23.002;2023-02-19T06:56:37;97784.88;;;5.58;78.62
36630;BME280;36256;42.154;23.002;2023-02-19T06:59:11;97790.91;;;5.50;78.54
36630;BME280;36256;42.154;23.002;2023-02-19T07:01:39;97786.72;;;5.76;77.77
36630;BME280;36256;42.154;23.002;2023-02-19T07:04:06;97791.44;;;5.86;76.81
36630;BME280;36256;42.154;23.002;2023-02-19T07:06:33;97786.53;;;6.04;76.70
36630;BME280;36256;42.154;23.002;2023-02-19T07:09:00;97773.56;;;6.24;74.28
36630;BME280;36256;42.154;23.002;2023-02-19T07:11:30;97780.06;;;6.48;75.19
36630;BME280;36256;42.154;23.002;2023-02-19T07:13:58;97771.34;;;6.79;72.21
36630;BME280;36256;42.154;23.002;2023-02-19T07:16:25;97774.34;;;6.92;71.27
36630;BME280;36256;42.154;23.002;2023-02-19T07:18:55;97766.06;;;7.15;70.39
36630;BME280;36256;42.154;23.002;2023-02-19T07:21:23;97770.28;;;7.53;69.75
36630;BME280;36256;42.154;23.002;2023-02-19T07:23:50;97765.47;;;8.04;67.13
36630;BME280;36256;42.154;23.002;2023-02-19T07:26:17;97753.88;;;8.25;66.40
36630;BME280;36256;42.154;23.002;2023-02-19T07:28:46;97751.00;;;8.51;65.30
36630;BME280;36256;42.154;23.002;2023-02-19T07:31:15;97752.31;;;8.86;62.67
36630;BME280;36256;42.154;23.002;2023-02-19T07:33:42;97752.88;;;8.97;61.27
36630;BME280;36256;42.154;23.002;2023-02-19T07:36:10;97747.69;;;8.96;62.09
36630;BME280;36256;42.154;23.002;2023-02-19T07:38:37;97748.94;;;8.75;62.16
36630;BME280;36256;42.154;23.002;2023-02-19T07:41:04;97742.78;;;9.00;62.14
36630;BME280;36256;42.154;23.002;2023-02-19T07:43:36;97742.56;;;9.10;62.25
36630;BME280;36256;42.154;23.002;2023-02-19T07:46:04;97752.66;;;9.24;62.22
36630;BME280;36256;42.154;23.002;2023-02-19T07:48:31;97742.41;;;9.17;61.74
36630;BME280;36256;42.154;23.002;2023-02-19T07:51:00;97737.41;;;9.61;61.09
36630;BME280;36256;42.154;23.002;2023-02-19T07:53:27;97731.09;;;10.05;59.68
36630;BME280;36256;42.154;23.002;2023-02-19T07:56:02;97727.53;;;10.33;57.79
36630;BME280;36256;42.154;23.002;2023-02-19T07:58:29;97720.09;;;10.43;57.34
36630;BME280;36256;42.154;23.002;2023-02-19T08:00:56;97727.81;;;10.80;56.78
36630;BME280;36256;42.154;23.002;2023-02-19T08:03:23;97723.53;;;10.75;57.15
36630;BME280;36256;42.154;23.002;2023-02-19T08:05:50;97718.44;;;10.99;56.15
36630;BME280;36256;42.154;23.002;2023-02-19T08:08:19;97715.56;;;11.28;55.37
36630;BME280;36256;42.154;23.002;2023-02-19T08:10:45;97719.25;;;11.50;55.43
36630;BME280;36256;42.154;23.002;2023-02-19T08:13:31;97704.31;;;11.78;54.34
36630;BME280;36256;42.154;23.002;2023-02-19T08:18:42;97685.94;;;12.33;51.57
36630;BME280;36256;42.154;23.002;2023-02-19T08:21:09;97686.31;;;12.22;52.07
36630;BME280;36256;42.154;23.002;2023-02-19T08:23:36;97672.94;;;12.48;52.79
36630;BME280;36256;42.154;23.002;2023-02-19T08:26:04;97688.56;;;12.92;50.66
36630;BME280;36256;42.154;23.002;2023-02-19T08:28:31;97676.09;;;13.02;50.31
36630;BME280;36256;42.154;23.002;2023-02-19T08:31:02;97685.28;;;12.94;50.60
36630;BME280;36256;42.154;23.002;2023-02-19T08:33:29;97677.84;;;13.79;48.60
36630;BME280;36256;42.154;23.002;2023-02-19T08:36:00;97716.69;;;14.60;47.56
36630;BME280;36256;42.154;23.002;2023-02-19T08:38:31;97714.78;;;15.03;45.65
36630;BME280;36256;42.154;23.002;2023-02-19T08:41:08;97696.56;;;15.96;43.79
36630;BME280;36256;42.154;23.002;2023-02-19T08:43:36;97702.84;;;16.62;42.57
36630;BME280;36256;42.154;23.002;2023-02-19T08:46:03;97708.09;;;16.78;42.99
36630;BME280;36256;42.154;23.002;2023-02-19T08:48:30;97737.44;;;17.92;39.49
36630;BME280;36256;42.154;23.002;2023-02-19T08:50:58;97731.78;;;17.92;38.45
36630;BME280;36256;42.154;23.002;2023-02-19T08:53:25;97724.00;;;18.27;38.02
36630;BME280;36256;42.154;23.002;2023-02-19T08:55:53;97729.78;;;18.33;38.50
36630;BME280;36256;42.154;23.002;2023-02-19T08:58:20;97716.44;;;19.25;37.17
36630;BME280;36256;42.154;23.002;2023-02-19T09:00:46;97718.41;;;20.01;35.17
36630;BME280;36256;42.154;23.002;2023-02-19T09:03:13;97712.75;;;20.44;34.94
36630;BME280;36256;42.154;23.002;2023-02-19T09:05:40;97710.44;;;21.23;33.56
36630;BME280;36256;42.154;23.002;2023-02-19T09:08:08;97693.59;;;21.42;32.90
36630;BME280;36256;42.154;23.002;2023-02-19T09:10:34;97702.94;;;22.25;32.02
36630;BME280;36256;42.154;23.002;2023-02-19T09:13:01;97688.84;;;21.00;33.16
36630;BME280;36256;42.154;23.002;2023-02-19T09:15:28;97687.66;;;21.34;32.29
36630;BME280;36256;42.154;23.002;2023-02-19T09:17:55;97687.44;;;21.88;31.81
36630;BME280;36256;42.154;23.002;2023-02-19T09:20:22;97674.06;;;22.40;30.99
36630;BME280;36256;42.154;23.002;2023-02-19T09:22:49;97681.81;;;23.13;31.09
36630;BME280;36256;42.154;23.002;2023-02-19T09:25:21;97670.88;;;23.12;29.61
36630;BME280;36256;42.154;23.002;2023-02-19T09:27:48;97662.91;;;22.99;29.94
36630;BME280;36256;42.154;23.002;2023-02-19T09:30:14;97646.91;;;23.56;29.90
36630;BME280;36256;42.154;23.002;2023-02-19T09:32:41;97656.28;;;23.56;29.54
36630;BME280;36256;42.154;23.002;2023-02-19T09:35:08;97651.84;;;24.14;29.09
36630;BME280;36256;42.154;23.002;2023-02-19T09:37:34;97639.97;;;24.90;29.37
36630;BME280;36256;42.154;23.002;2023-02-19T09:40:01;97628.31;;;24.64;28.33
36630;BME280;36256;42.154;23.002;2023-02-19T09:42:28;97626.69;;;23.72;29.71
36630;BME280;36256;42.154;23.002;2023-02-19T09:44:58;97631.25;;;23.21;31.29
36630;BME280;36256;42.154;23.002;2023-02-19T09:47:31;97620.63;;;22.02;31.93
36630;BME280;36256;42.154;23.002;2023-02-19T09:50:12;97609.47;;;20.17;34.23
36630;BME280;36256;42.154;23.002;2023-02-19T09:52:54;97593.13;;;19.02;36.81
36630;BME280;36256;42.154;23.002;2023-02-19T09:55:34;97589.28;;;18.34;37.56
36630;BME280;36256;42.154;23.002;2023-02-19T09:58:07;97579.16;;;17.67;37.76
36630;BME280;36256;42.154;23.002;2023-02-19T10:00:42;97569.56;;;17.30;38.56
36630;BME280;36256;42.154;23.002;2023-02-19T10:03:31;97556.59;;;17.08;39.01
36630;BME280;36256;42.154;23.002;2023-02-19T10:06:03;97565.22;;;16.85;40.62
36630;BME280;36256;42.154;23.002;2023-02-19T10:08:33;97555.25;;;16.60;41.12
36630;BME280;36256;42.154;23.002;2023-02-19T10:11:02;97554.34;;;16.69;40.73
36630;BME280;36256;42.154;23.002;2023-02-19T10:13:35;97533.06;;;16.73;41.59
36630;BME280;36256;42.154;23.002;2023-02-19T10:16:06;97538.63;;;16.82;40.29
36630;BME280;36256;42.154;23.002;2023-02-19T10:18:38;97539.22;;;16.57;40.13
36630;BME280;36256;42.154;23.002;2023-02-19T10:21:14;97524.19;;;16.51;40.51
36630;BME280;36256;42.154;23.002;2023-02-19T10:23:42;97522.63;;;16.50;40.50
36630;BME280;36256;42.154;23.002;2023-02-19T10:26:09;97519.84;;;16.41;40.80
36630;BME280;36256;42.154;23.002;2023-02-19T10:28:36;97502.16;;;16.17;41.28
36630;BME280;36256;42.154;23.002;2023-02-19T10:31:10;97510.66;;;16.17;41.15
36630;BME280;36256;42.154;23.002;2023-02-19T10:34:00;97508.19;;;16.10;41.29
36630;BME280;36256;42.154;23.002;2023-02-19T10:36:32;97492.88;;;16.02;41.27
36630;BME280;36256;42.154;23.002;2023-02-19T10:41:51;97473.34;;;16.47;41.70
36630;BME280;36256;42.154;23.002;2023-02-19T10:44:22;97467.69;;;16.62;40.57
36630;BME280;36256;42.154;23.002;2023-02-19T10:46:54;97461.28;;;16.62;40.34
36630;BME280;36256;42.154;23.002;2023-02-19T10:49:25;97461.44;;;16.87;40.44
36630;BME280;36256;42.154;23.002;2023-02-19T10:51:54;97449.44;;;17.12;39.32
36630;BME280;36256;42.154;23.002;2023-02-19T10:54:27;97449.63;;;17.09;39.73
36630;BME280;36256;42.154;23.002;2023-02-19T10:57:30;97444.53;;;17.33;38.53
36630;BME280;36256;42.154;23.002;2023-02-19T11:02:44;97426.53;;;17.36;38.30
36630;BME280;36256;42.154;23.002;2023-02-19T11:07:45;97410.75;;;17.50;38.48
36630;BME280;36256;42.154;23.002;2023-02-19T11:10:40;97398.66;;;17.35;38.25
36630;BME280;36256;42.154;23.002;2023-02-19T11:13:17;97386.19;;;17.26;37.98
36630;BME280;36256;42.154;23.002;2023-02-19T11:15:51;97383.31;;;17.47;38.54
36630;BME280;36256;42.154;23.002;2023-02-19T11:18:30;97387.63;;;17.57;37.96
36630;BME280;36256;42.154;23.002;2023-02-19T11:21:01;97374.88;;;17.72;38.22
36630;BME280;36256;42.154;23.002;2023-02-19T11:23:30;97366.31;;;17.92;36.92
36630;BME280;36256;42.154;23.002;2023-02-19T11:26:00;97362.59;;;18.12;37.58
36630;BME280;36256;42.154;23.002;2023-02-19T11:28:38;97353.53;;;18.08;36.79
36630;BME280;36256;42.154;23.002;2023-02-19T11:31:23;97360.25;;;18.05;36.72
36630;BME280;36256;42.154;23.002;2023-02-19T11:34:01;97352.91;;;17.93;36.42
36630;BME280;36256;42.154;23.002;2023-02-19T11:36:33;97343.09;;;18.25;36.89
36630;BME280;36256;42.154;23.002;2023-02-19T11:44:44;97326.63;;;18.60;36.02
36630;BME280;36256;42.154;23.002;2023-02-19T11:47:54;97322.47;;;18.61;36.02
36630;BME280;36256;42.154;23.002;2023-02-19T11:53:13;97306.13;;;18.99;35.55
36630;BME280;36256;42.154;23.002;2023-02-19T12:01:06;97286.72;;;18.97;34.54
36630;BME280;36256;42.154;23.002;2023-02-19T12:22:41;97242.47;;;19.88;34.34
36630;BME280;36256;42.154;23.002;2023-02-19T12:41:31;97207.22;;;20.30;33.01
36630;BME280;36256;42.154;23.002;2023-02-19T12:44:41;97206.72;;;20.20;32.82
36630;BME280;36256;42.154;23.002;2023-02-19T12:47:17;97192.44;;;20.15;33.30
36630;BME280;36256;42.154;23.002;2023-02-19T12:49:52;97195.06;;;20.18;32.88
36630;BME280;36256;42.154;23.002;2023-02-19T12:52:27;97182.88;;;20.07;32.91
36630;BME280;36256;42.154;23.002;2023-02-19T12:55:02;97187.34;;;19.91;33.38
36630;BME280;36256;42.154;23.002;2023-02-19T12:57:34;97184.72;;;19.99;32.82
36630;BME280;36256;42.154;23.002;2023-02-19T13:03:21;97164.00;;;20.09;33.41
36630;BME280;36256;42.154;23.002;2023-02-19T13:05:54;97164.50;;;20.19;33.18
36630;BME280;36256;42.154;23.002;2023-02-19T13:08:29;97156.22;;;20.26;32.38
36630;BME280;36256;42.154;23.002;2023-02-19T13:11:18;97158.31;;;20.20;32.75
36630;BME280;36256;42.154;23.002;2023-02-19T13:13:48;97148.97;;;20.09;32.52
36630;BME280;36256;42.154;23.002;2023-02-19T13:16:18;97149.72;;;20.15;33.42
36630;BME280;36256;42.154;23.002;2023-02-19T13:18:55;97155.97;;;20.24;33.01
36630;BME280;36256;42.154;23.002;2023-02-19T13:21:32;97140.66;;;20.16;32.41
36630;BME280;36256;42.154;23.002;2023-02-19T13:24:34;97136.00;;;20.24;32.99
36630;BME280;36256;42.154;23.002;2023-02-19T13:37:33;97109.63;;;19.96;32.82
36630;BME280;36256;42.154;23.002;2023-02-19T13:40:17;97102.91;;;19.99;33.18
36630;BME280;36256;42.154;23.002;2023-02-19T13:42:53;97105.53;;;19.86;33.12
36630;BME280;36256;42.154;23.002;2023-02-19T13:45:22;97098.00;;;19.83;33.40
36630;BME280;36256;42.154;23.002;2023-02-19T13:50:33;97101.66;;;19.89;33.30
36630;BME280;36256;42.154;23.002;2023-02-19T13:53:01;97100.59;;;19.81;33.62
36630;BME280;36256;42.154;23.002;2023-02-19T13:55:50;97098.81;;;19.89;33.24
36630;BME280;36256;42.154;23.002;2023-02-19T14:03:29;97093.66;;;19.71;33.44
36630;BME280;36256;42.154;23.002;2023-02-19T14:06:05;97087.66;;;19.75;33.75
36630;BME280;36256;42.154;23.002;2023-02-19T14:08:49;97094.44;;;19.72;33.38
36630;BME280;36256;42.154;23.002;2023-02-19T14:11:17;97097.50;;;19.79;33.42
36630;BME280;36256;42.154;23.002;2023-02-19T14:16:53;97096.72;;;19.84;35.82
36630;BME280;36256;42.154;23.002;2023-02-19T14:25:35;97078.56;;;19.98;34.47
36630;BME280;36256;42.154;23.002;2023-02-19T14:28:13;97068.22;;;19.95;35.01
36630;BME280;36256;42.154;23.002;2023-02-19T14:31:32;97075.97;;;20.00;36.72
36630;BME280;36256;42.154;23.002;2023-02-19T14:33:46;97070.03;;;19.98;36.42
36630;BME280;36256;42.154;23.002;2023-02-19T14:38:54;97062.34;;;19.71;36.67
36630;BME280;36256;42.154;23.002;2023-02-19T14:41:22;97070.66;;;19.36;37.66
36630;BME280;36256;42.154;23.002;2023-02-19T14:43:51;97076.31;;;19.30;38.12
36630;BME280;36256;42.154;23.002;2023-02-19T14:46:27;97071.69;;;19.11;35.43
36630;BME280;36256;42.154;23.002;2023-02-19T14:49:03;97069.09;;;19.02;36.02
36630;BME280;36256;42.154;23.002;2023-02-19T14:51:36;97069.84;;;18.97;34.58
36630;BME280;36256;42.154;23.002;2023-02-19T14:54:17;97072.94;;;18.99;34.76
36630;BME280;36256;42.154;23.002;2023-02-19T14:56:50;97073.75;;;18.94;34.18
36630;BME280;36256;42.154;23.002;2023-02-19T14:59:35;97075.78;;;18.82;33.66
36630;BME280;36256;42.154;23.002;2023-02-19T15:02:12;97078.88;;;18.73;33.98
36630;BME280;36256;42.154;23.002;2023-02-19T15:04:39;97079.88;;;18.53;34.31
36630;BME280;36256;42.154;23.002;2023-02-19T15:07:08;97082.88;;;18.39;33.75
36630;BME280;36256;42.154;23.002;2023-02-19T15:09:38;97085.44;;;18.31;34.35
36630;BME280;36256;42.154;23.002;2023-02-19T15:12:12;97081.53;;;18.23;34.06
36630;BME280;36256;42.154;23.002;2023-02-19T15:14:39;97078.16;;;18.14;33.98
36630;BME280;36256;42.154;23.002;2023-02-19T15:17:06;97087.59;;;17.94;34.44
36630;BME280;36256;42.154;23.002;2023-02-19T15:19:34;97078.03;;;17.91;34.35
36630;BME280;36256;42.154;23.002;2023-02-19T15:22:02;97084.69;;;17.83;35.00
36630;BME280;36256;42.154;23.002;2023-02-19T15:24:29;97060.13;;;17.69;34.91
36630;BME280;36256;42.154;23.002;2023-02-19T15:26:59;97077.38;;;17.65;35.33
36630;BME280;36256;42.154;23.002;2023-02-19T15:29:28;97080.84;;;17.49;35.87
36630;BME280;36256;42.154;23.002;2023-02-19T15:31:57;97085.47;;;17.47;35.12
36630;BME280;36256;42.154;23.002;2023-02-19T15:34:30;97091.66;;;17.45;35.27
36630;BME280;36256;42.154;23.002;2023-02-19T15:39:35;97081.47;;;17.27;35.77
36630;BME280;36256;42.154;23.002;2023-02-19T15:42:09;97061.28;;;17.14;35.88
36630;BME280;36256;42.154;23.002;2023-02-19T15:50:08;97073.59;;;17.11;35.67
36630;BME280;36256;42.154;23.002;2023-02-19T16:00:59;97066.63;;;16.81;36.45
36630;BME280;36256;42.154;23.002;2023-02-19T16:03:28;97053.09;;;16.65;36.10
36630;BME280;36256;42.154;23.002;2023-02-19T16:06:33;97070.94;;;16.71;35.81